createdAt,value
2019-03-19T00:00:25.603Z,9.7
2019-03-19T00:01:15.370Z,9.7
2019-03-19T00:02:05.718Z,9.7
2019-03-19T00:02:55.508Z,9.7
2019-03-19T00:03:45.290Z,9.7
2019-03-19T00:04:35.900Z,9.7
2019-03-19T00:05:25.410Z,9.6
2019-03-19T00:06:15.762Z,9.6
2019-03-19T00:07:06.105Z,9.6
2019-03-19T00:07:55.598Z,9.6
2019-03-19T00:08:45.715Z,9.6
2019-03-19T00:09:36.320Z,9.6
2019-03-19T00:10:26.332Z,9.6
2019-03-19T00:11:16.387Z,9.5
2019-03-19T00:12:06.180Z,9.5
2019-03-19T00:12:55.955Z,9.5
2019-03-19T00:13:46.298Z,9.4
2019-03-19T00:14:36.065Z,9.4
2019-03-19T00:15:26.687Z,9.4
2019-03-19T00:16:16.742Z,9.3
2019-03-19T00:17:06.546Z,9.3
2019-03-19T00:17:56.864Z,9.3
2019-03-19T00:18:46.924Z,9.3
2019-03-19T00:19:37.015Z,9.2
2019-03-19T00:20:26.809Z,9.2
2019-03-19T00:21:16.852Z,9.2
2019-03-19T00:22:07.187Z,9.1
2019-03-19T00:22:56.976Z,9.1
2019-03-19T00:23:47.345Z,9.1
2019-03-19T00:24:37.098Z,9.1
2019-03-19T00:25:32.351Z,9.1
2019-03-19T00:26:17.206Z,9.1
2019-03-19T00:27:07.552Z,9.1
2019-03-19T00:27:57.381Z,9.1
2019-03-19T00:28:47.392Z,9.1
2019-03-19T00:29:37.450Z,9.1
2019-03-19T00:30:27.244Z,9.1
2019-03-19T00:31:17.306Z,9.1
2019-03-19T00:32:07.423Z,9.1
2019-03-19T00:32:57.969Z,9.1
2019-03-19T00:33:48.026Z,9.1
2019-03-19T00:34:38.092Z,9.1
2019-03-19T00:35:28.158Z,9
2019-03-19T00:36:19.525Z,9
2019-03-19T00:37:08.016Z,9
2019-03-19T00:37:58.339Z,9
2019-03-19T00:38:48.154Z,9
2019-03-19T00:39:38.466Z,8.9
2019-03-19T00:40:28.521Z,8.9
2019-03-19T00:41:18.425Z,9
2019-03-19T00:42:07.808Z,8.9
2019-03-19T00:42:58.418Z,8.9
2019-03-19T00:43:48.770Z,8.9
2019-03-19T00:44:38.277Z,8.9
2019-03-19T00:45:28.888Z,8.9
2019-03-19T00:46:18.998Z,8.9
2019-03-19T00:47:08.999Z,8.9
2019-03-19T00:47:59.120Z,8.9
2019-03-19T00:48:48.577Z,8.8
2019-03-19T00:49:38.923Z,8.8
2019-03-19T00:50:28.680Z,8.8
2019-03-19T00:51:19.085Z,8.8
2019-03-19T00:52:08.812Z,8.8
2019-03-19T00:52:59.423Z,8.8
2019-03-19T00:53:49.247Z,8.8
2019-03-19T00:54:39.020Z,8.8
2019-03-19T00:55:39.845Z,8.8
2019-03-19T00:56:19.677Z,8.8
2019-03-19T00:57:09.732Z,8.8
2019-03-19T00:57:59.826Z,8.8
2019-03-19T00:58:49.304Z,8.8
2019-03-19T00:59:39.632Z,8.8
2019-03-19T01:00:29.700Z,8.8
2019-03-19T01:01:19.757Z,8.8
2019-03-19T01:02:09.547Z,8.8
2019-03-19T01:02:59.883Z,8.7
2019-03-19T01:03:50.217Z,8.7
2019-03-19T01:04:40.273Z,8.7
2019-03-19T01:05:30.350Z,8.7
2019-03-19T01:06:20.125Z,8.7
2019-03-19T01:07:10.468Z,8.7
2019-03-19T01:08:00.264Z,8.6
2019-03-19T01:08:50.587Z,8.6
2019-03-19T01:09:40.384Z,8.6
2019-03-19T01:10:30.749Z,8.6
2019-03-19T01:11:20.494Z,8.6
2019-03-19T01:12:10.543Z,8.6
2019-03-19T01:13:00.881Z,8.6
2019-03-19T01:13:50.939Z,8.6
2019-03-19T01:14:40.734Z,8.6
2019-03-19T01:15:30.794Z,8.6
2019-03-19T01:16:21.118Z,8.6
2019-03-19T01:17:10.911Z,8.6
2019-03-19T01:18:01.264Z,8.5
2019-03-19T01:18:51.309Z,8.5
2019-03-19T01:19:41.101Z,8.5
2019-03-19T01:20:31.451Z,8.5
2019-03-19T01:21:21.511Z,8.4
2019-03-19T01:22:10.996Z,8.4
2019-03-19T01:23:01.623Z,8.4
2019-03-19T01:23:51.406Z,8.4
2019-03-19T01:24:41.463Z,8.4
2019-03-19T01:25:31.259Z,8.4
2019-03-19T01:26:21.595Z,8.4
2019-03-19T01:27:11.643Z,8.4
2019-03-19T01:28:01.716Z,8.4
2019-03-19T01:28:52.068Z,8.3
2019-03-19T01:29:42.093Z,8.3
2019-03-19T01:30:32.170Z,8.3
2019-03-19T01:31:21.953Z,8.3
2019-03-19T01:32:12.002Z,8.3
2019-03-19T01:33:02.073Z,8.3
2019-03-19T01:33:52.133Z,8.3
2019-03-19T01:34:42.192Z,8.2
2019-03-19T01:35:32.302Z,8.3
2019-03-19T01:36:22.308Z,8.2
2019-03-19T01:37:12.370Z,8.2
2019-03-19T01:38:02.465Z,8.2
2019-03-19T01:38:52.837Z,8.2
2019-03-19T01:39:42.855Z,8.2
2019-03-19T01:40:32.661Z,8.2
2019-03-19T01:41:22.954Z,8.1
2019-03-19T01:42:12.757Z,8.2
2019-03-19T01:43:02.802Z,8.1
2019-03-19T01:43:52.867Z,8.1
2019-03-19T01:44:42.945Z,8.1
2019-03-19T01:45:33.259Z,8.1
2019-03-19T01:46:23.324Z,8.1
2019-03-19T01:47:13.383Z,8.1
2019-03-19T01:48:03.462Z,8.1
2019-03-19T01:48:52.941Z,8.1
2019-03-19T01:49:43.011Z,8.1
2019-03-19T01:50:33.079Z,8.1
2019-03-19T01:51:23.416Z,8.1
2019-03-19T01:52:13.747Z,8
2019-03-19T01:53:03.819Z,8
2019-03-19T01:53:53.031Z,8.1
2019-03-19T01:54:43.930Z,8
2019-03-19T01:55:33.994Z,8
2019-03-19T01:56:24.040Z,8
2019-03-19T01:57:13.284Z,8
2019-03-19T01:58:04.191Z,8
2019-03-19T01:58:53.961Z,8
2019-03-19T01:59:44.019Z,8
2019-03-19T02:00:34.081Z,8
2019-03-19T02:01:24.461Z,7.9
2019-03-19T02:02:13.701Z,7.9
2019-03-19T02:03:04.533Z,7.9
2019-03-19T02:03:54.621Z,7.9
2019-03-19T02:04:44.396Z,7.9
2019-03-19T02:05:34.509Z,7.9
2019-03-19T02:06:24.764Z,7.9
2019-03-19T02:07:14.013Z,7.9
2019-03-19T02:08:04.641Z,7.9
2019-03-19T02:08:54.693Z,7.9
2019-03-19T02:09:44.473Z,7.8
2019-03-19T02:10:35.078Z,7.8
2019-03-19T02:11:25.143Z,7.8
2019-03-19T02:12:14.926Z,7.8
2019-03-19T02:13:05.273Z,7.8
2019-03-19T02:13:55.058Z,7.8
2019-03-19T02:14:45.425Z,7.8
2019-03-19T02:15:35.442Z,7.7
2019-03-19T02:16:25.503Z,7.7
2019-03-19T02:17:15.599Z,7.8
2019-03-19T02:18:04.816Z,7.7
2019-03-19T02:18:55.138Z,7.7
2019-03-19T02:19:45.770Z,7.7
2019-03-19T02:20:35.321Z,7.6
2019-03-19T02:21:25.888Z,7.7
2019-03-19T02:22:15.930Z,7.7
2019-03-19T02:23:06.977Z,7.6
2019-03-19T02:23:55.533Z,7.6
2019-03-19T02:24:45.683Z,7.6
2019-03-19T02:25:35.909Z,7.6
2019-03-19T02:26:26.235Z,7.6
2019-03-19T02:27:16.035Z,7.6
2019-03-19T02:28:06.393Z,7.6
2019-03-19T02:28:55.877Z,7.5
2019-03-19T02:29:46.480Z,7.5
2019-03-19T02:30:36.631Z,7.5
2019-03-19T02:31:26.188Z,7.5
2019-03-19T02:32:16.459Z,7.4
2019-03-19T02:33:06.871Z,7.4
2019-03-19T02:33:56.553Z,7.4
2019-03-19T02:34:47.074Z,7.4
2019-03-19T02:35:36.714Z,7.4
2019-03-19T02:36:27.007Z,7.4
2019-03-19T02:37:16.812Z,7.3
2019-03-19T02:38:07.152Z,7.3
2019-03-19T02:38:57.185Z,7.3
2019-03-19T02:39:46.976Z,7.3
2019-03-19T02:40:37.033Z,7.3
2019-03-19T02:41:27.371Z,7.3
2019-03-19T02:42:17.172Z,7.3
2019-03-19T02:43:07.485Z,7.3
2019-03-19T02:43:57.281Z,7.3
2019-03-19T02:44:47.057Z,7.2
2019-03-19T02:45:37.658Z,7.2
2019-03-19T02:46:27.766Z,7.1
2019-03-19T02:47:17.785Z,7.1
2019-03-19T02:48:07.626Z,7.1
2019-03-19T02:48:57.931Z,7.1
2019-03-19T02:49:47.686Z,7.1
2019-03-19T02:50:37.504Z,7.1
2019-03-19T02:51:27.870Z,7.1
2019-03-19T02:52:17.862Z,7.1
2019-03-19T02:53:08.208Z,7
2019-03-19T02:53:58.269Z,6.9
2019-03-19T02:54:48.341Z,6.9
2019-03-19T02:55:38.400Z,6.9
2019-03-19T02:56:35.806Z,6.9
2019-03-19T02:57:17.983Z,6.9
2019-03-19T02:58:08.567Z,6.9
2019-03-19T02:58:57.869Z,6.9
2019-03-19T02:59:47.879Z,6.9
2019-03-19T03:00:38.748Z,6.8
2019-03-19T03:01:28.534Z,6.8
2019-03-19T03:02:18.606Z,6.8
2019-03-19T03:03:08.943Z,6.8
2019-03-19T03:03:58.980Z,6.8
2019-03-19T03:07:29.501Z,6.7
2019-03-19T03:08:18.951Z,6.7
2019-03-19T03:09:09.657Z,6.7
2019-03-19T03:09:59.620Z,6.7
2019-03-19T03:10:49.410Z,6.6
2019-03-19T03:11:39.770Z,6.6
2019-03-19T03:12:29.799Z,6.6
2019-03-19T03:13:19.856Z,6.6
2019-03-19T03:14:09.938Z,6.6
2019-03-19T03:15:00.037Z,6.6
2019-03-19T03:15:49.500Z,6.6
2019-03-19T03:16:39.580Z,6.6
2019-03-19T03:17:29.643Z,6.6
2019-03-19T03:18:19.949Z,6.6
2019-03-19T03:19:10.069Z,6.5
2019-03-19T03:19:59.814Z,6.5
2019-03-19T03:20:50.122Z,6.5
2019-03-19T03:21:40.492Z,6.5
2019-03-19T03:22:30.254Z,6.4
2019-03-19T03:23:20.341Z,6.4
2019-03-19T03:24:10.105Z,6.4
2019-03-19T03:25:00.524Z,6.4
2019-03-19T03:25:50.515Z,6.4
2019-03-19T03:26:50.891Z,6.4
2019-03-19T03:27:30.359Z,6.4
2019-03-19T03:28:20.712Z,6.4
2019-03-19T03:29:10.769Z,6.4
2019-03-19T03:30:01.505Z,6.3
2019-03-19T03:30:51.220Z,6.3
2019-03-19T03:31:41.047Z,6.3
2019-03-19T03:32:31.109Z,6.3
2019-03-19T03:33:21.424Z,6.3
2019-03-19T03:34:11.482Z,6.3
2019-03-19T03:35:01.990Z,6.3
2019-03-19T03:35:51.247Z,6.2
2019-03-19T03:36:41.307Z,6.2
2019-03-19T03:37:31.058Z,6.2
2019-03-19T03:38:21.671Z,6.1
2019-03-19T03:39:11.549Z,6.1
2019-03-19T03:40:01.776Z,6.1
2019-03-19T03:40:51.619Z,6.1
2019-03-19T03:41:41.749Z,6.1
2019-03-19T03:42:31.694Z,6.1
2019-03-19T03:43:21.830Z,6.1
2019-03-19T03:44:11.834Z,6.1
2019-03-19T03:45:01.998Z,6.1
2019-03-19T03:45:51.983Z,6
2019-03-19T03:46:42.021Z,6
2019-03-19T03:47:32.372Z,6
2019-03-19T03:48:22.108Z,6
2019-03-19T03:49:12.180Z,5.9
2019-03-19T03:50:02.799Z,5.9
2019-03-19T03:50:52.676Z,5.9
2019-03-19T03:51:42.657Z,5.9
2019-03-19T03:52:32.711Z,5.9
2019-03-19T03:53:22.780Z,5.9
2019-03-19T03:54:12.566Z,5.8
2019-03-19T03:55:02.800Z,5.9
2019-03-19T03:55:53.000Z,5.8
2019-03-19T03:56:43.010Z,5.8
2019-03-19T03:57:33.113Z,5.8
2019-03-19T03:58:22.868Z,5.8
2019-03-19T03:59:12.921Z,5.8
2019-03-19T04:00:03.076Z,5.8
2019-03-19T04:00:53.317Z,5.7
2019-03-19T04:01:43.391Z,5.8
2019-03-19T04:02:33.444Z,5.7
2019-03-19T04:03:23.503Z,5.7
2019-03-19T04:04:12.992Z,5.7
2019-03-19T04:05:03.762Z,5.7
2019-03-19T04:05:53.664Z,5.7
2019-03-19T04:06:43.756Z,5.7
2019-03-19T04:07:33.853Z,5.7
2019-03-19T04:08:23.357Z,5.7
2019-03-19T04:09:13.665Z,5.6
2019-03-19T04:10:04.023Z,5.6
2019-03-19T04:10:53.805Z,5.6
2019-03-19T04:11:44.127Z,5.6
2019-03-19T04:12:33.922Z,5.6
2019-03-19T04:13:23.745Z,5.6
2019-03-19T04:14:14.298Z,5.6
2019-03-19T04:15:04.189Z,5.6
2019-03-19T04:15:54.462Z,5.6
2019-03-19T04:16:44.203Z,5.5
2019-03-19T04:17:33.981Z,5.6
2019-03-19T04:18:24.384Z,5.5
2019-03-19T04:19:14.365Z,5.5
2019-03-19T04:20:04.775Z,5.5
2019-03-19T04:20:54.496Z,5.4
2019-03-19T04:21:44.579Z,5.5
2019-03-19T04:22:34.630Z,5.5
2019-03-19T04:23:24.979Z,5.5
2019-03-19T04:24:14.468Z,5.5
2019-03-19T04:25:04.267Z,5.4
2019-03-19T04:25:54.339Z,5.4
2019-03-19T04:26:45.206Z,5.5
2019-03-19T04:27:35.252Z,5.4
2019-03-19T04:28:24.771Z,5.4
2019-03-19T04:29:15.113Z,5.4
2019-03-19T04:30:05.188Z,5.4
2019-03-19T04:30:55.574Z,5.4
2019-03-19T04:31:45.299Z,5.4
2019-03-19T04:32:35.167Z,5.4
2019-03-19T04:33:25.393Z,5.4
2019-03-19T04:34:15.458Z,5.4
2019-03-19T04:35:05.240Z,5.4
2019-03-19T04:35:55.600Z,5.4
2019-03-19T04:36:45.356Z,5.4
2019-03-19T04:37:35.407Z,5.4
2019-03-19T04:38:26.065Z,5.4
2019-03-19T04:39:15.813Z,5.4
2019-03-19T04:40:05.905Z,5.4
2019-03-19T04:40:56.227Z,5.4
2019-03-19T04:41:46.284Z,5.3
2019-03-19T04:42:36.335Z,5.4
2019-03-19T04:43:26.144Z,5.4
2019-03-19T04:44:16.467Z,5.3
2019-03-19T04:45:06.509Z,5.3
2019-03-19T04:45:56.570Z,5.3
2019-03-19T04:46:46.632Z,5.3
2019-03-19T04:47:36.699Z,5.4
2019-03-19T04:48:26.494Z,5.3
2019-03-19T04:49:15.999Z,5.3
2019-03-19T04:50:06.877Z,5.4
2019-03-19T04:50:56.384Z,5.4
2019-03-19T04:51:46.711Z,5.4
2019-03-19T04:52:36.496Z,5.4
2019-03-19T04:53:26.577Z,5.4
2019-03-19T04:54:17.184Z,5.4
2019-03-19T04:55:06.686Z,5.4
2019-03-19T04:55:57.304Z,5.4
2019-03-19T04:56:47.374Z,5.4
2019-03-19T04:57:37.129Z,5.5
2019-03-19T04:58:27.484Z,5.5
2019-03-19T04:59:17.548Z,5.5
2019-03-19T05:00:07.618Z,5.6
2019-03-19T05:00:57.659Z,5.6
2019-03-19T05:01:47.759Z,5.6
2019-03-19T05:02:37.781Z,5.6
2019-03-19T05:03:27.833Z,5.7
2019-03-19T05:04:17.908Z,5.8
2019-03-19T05:05:07.971Z,5.8
2019-03-19T05:06:00.167Z,5.8
2019-03-19T05:06:47.816Z,5.9
2019-03-19T05:07:38.151Z,6
2019-03-19T05:08:27.946Z,6.1
2019-03-19T05:09:17.441Z,6.2
2019-03-19T05:10:08.343Z,6.3
2019-03-19T05:10:58.414Z,6.3
2019-03-19T05:11:48.506Z,6.5
2019-03-19T05:12:37.967Z,6.6
2019-03-19T05:13:28.300Z,6.7
2019-03-19T05:14:18.650Z,6.8
2019-03-19T05:15:08.433Z,6.9
2019-03-19T05:15:58.207Z,7.1
2019-03-19T05:16:48.863Z,7.2
2019-03-19T05:17:38.320Z,7.3
2019-03-19T05:18:31.235Z,7.4
2019-03-19T05:19:18.735Z,7.6
2019-03-19T05:20:09.040Z,7.7
2019-03-19T05:20:59.113Z,7.9
2019-03-19T05:21:48.949Z,8
2019-03-19T05:22:39.243Z,8.1
2019-03-19T05:23:29.324Z,8.3
2019-03-19T05:24:19.348Z,8.5
2019-03-19T05:25:09.147Z,8.7
2019-03-19T05:25:59.477Z,8.9
2019-03-19T05:26:49.547Z,9.1
2019-03-19T05:27:40.097Z,9.3
2019-03-19T05:28:29.111Z,9.6
2019-03-19T05:29:19.757Z,9.8
2019-03-19T05:30:09.777Z,10
2019-03-19T05:30:59.550Z,10.2
2019-03-19T05:31:49.937Z,10.4
2019-03-19T05:32:39.392Z,10.6
2019-03-19T05:33:29.745Z,10.9
2019-03-19T05:34:20.144Z,11.1
2019-03-19T05:35:10.166Z,11.3
2019-03-19T05:36:00.238Z,11.6
2019-03-19T05:36:50.301Z,11.8
2019-03-19T05:37:39.823Z,12.1
2019-03-19T05:38:30.120Z,12.3
2019-03-19T05:39:19.874Z,12.6
2019-03-19T05:40:10.231Z,12.9
2019-03-19T05:41:00.561Z,13.3
2019-03-19T05:41:50.367Z,13.6
2019-03-19T05:42:40.696Z,13.9
2019-03-19T05:43:30.516Z,14.3
2019-03-19T05:44:20.558Z,14.6
2019-03-19T05:45:10.871Z,14.9
2019-03-19T05:46:00.656Z,15.3
2019-03-19T05:46:51.000Z,15.7
2019-03-19T05:47:43.123Z,16.1
2019-03-19T05:48:30.888Z,16.4
2019-03-19T05:49:20.884Z,16.8
2019-03-19T05:50:10.952Z,17.1
2019-03-19T05:51:01.216Z,17.5
2019-03-19T05:51:51.348Z,17.9
2019-03-19T05:52:41.410Z,18.3
2019-03-19T05:53:31.190Z,18.8
2019-03-19T05:54:21.253Z,19.1
2019-03-19T05:55:11.318Z,19.5
2019-03-19T05:56:01.647Z,20
2019-03-19T05:56:51.484Z,20.4
2019-03-19T05:57:52.285Z,20.9
2019-03-19T05:58:31.551Z,21.4
2019-03-19T05:59:21.610Z,21.8
2019-03-19T06:00:11.950Z,22.3
2019-03-19T06:01:02.023Z,22.6
2019-03-19T06:01:52.069Z,23.1
2019-03-19T06:02:41.867Z,23.5
2019-03-19T06:03:32.190Z,23.9
2019-03-19T06:05:29.425Z,24.8
2019-03-19T06:06:33.766Z,25.6
2019-03-19T06:07:25.479Z,26.2
2019-03-19T06:08:14.726Z,26.5
2019-03-19T07:05:29.034Z,49.2
2019-03-19T07:06:19.039Z,49.8
2019-03-19T07:07:09.099Z,50.4
2019-03-19T07:07:59.436Z,50.8
2019-03-19T07:08:49.213Z,51.1
2019-03-19T07:09:39.278Z,51.5
2019-03-19T07:10:29.061Z,51.8
2019-03-19T07:11:19.378Z,52.1
2019-03-19T07:12:09.179Z,52.6
2019-03-19T07:13:15.624Z,53
2019-03-19T07:13:49.854Z,53.5
2019-03-19T07:14:39.688Z,53.8
2019-03-19T07:16:28.125Z,54.2
2019-03-19T07:16:38.744Z,55.3
2019-03-19T07:17:29.120Z,55.3
2019-03-19T07:18:18.307Z,55.4
2019-03-19T07:19:09.199Z,55.5
2019-03-19T07:19:59.254Z,55.5
2019-03-19T07:20:49.041Z,55.6
2019-03-19T07:21:39.383Z,55.6
2019-03-19T07:22:29.152Z,55.7
2019-03-19T07:23:18.945Z,55.8
2019-03-19T07:24:09.560Z,55.9
2019-03-19T07:24:59.629Z,55.9
2019-03-19T07:25:49.404Z,55.8
2019-03-19T07:26:39.474Z,55.8
2019-03-19T07:27:29.239Z,55.8
2019-03-19T07:28:24.776Z,55.9
2019-03-19T07:29:09.922Z,56.1
2019-03-19T07:29:59.963Z,56.2
2019-03-19T07:30:49.763Z,56.4
2019-03-19T07:31:40.106Z,56.6
2019-03-19T07:32:30.169Z,56.7
2019-03-19T07:33:19.954Z,56.8
2019-03-19T07:34:10.043Z,56.9
2019-03-19T07:35:00.427Z,56.9
2019-03-19T07:35:50.404Z,56.9
2019-03-19T07:36:40.574Z,56.9
2019-03-19T07:37:30.516Z,57
2019-03-19T07:38:20.316Z,57.1
2019-03-19T07:39:10.365Z,57.3
2019-03-19T07:40:00.404Z,57.5
2019-03-19T07:41:40.306Z,58.1
2019-03-19T07:42:30.886Z,58.5
2019-03-19T07:43:20.998Z,59
2019-03-19T07:44:10.443Z,59.5
2019-03-19T07:45:00.896Z,59.9
2019-03-19T07:45:50.858Z,60.4
2019-03-19T07:46:41.195Z,60.8
2019-03-19T07:47:31.236Z,61.3
2019-03-19T07:48:21.306Z,61.9
2019-03-19T07:49:11.386Z,62.4
2019-03-19T07:50:01.308Z,62.7
2019-03-19T07:50:51.205Z,63.1
2019-03-19T07:51:41.261Z,63.6
2019-03-19T07:52:31.328Z,63.9
2019-03-19T07:53:21.391Z,64.3
2019-03-19T07:54:11.718Z,65.3
2019-03-19T07:55:01.328Z,64.8
2019-03-19T07:55:54.215Z,61.6
2019-03-19T07:56:41.932Z,58.9
2019-03-19T07:57:32.160Z,53.1
2019-03-19T07:58:46.871Z,47.9
2019-03-19T07:59:12.084Z,44.3
2019-03-19T08:00:02.090Z,43.7
2019-03-19T08:00:51.917Z,43.1
2019-03-19T08:01:42.277Z,43.5
2019-03-19T08:02:31.780Z,44.1
2019-03-19T08:03:22.385Z,44.8
2019-03-19T08:04:12.457Z,45.4
2019-03-19T08:05:02.654Z,46.1
2019-03-19T08:05:52.577Z,47.3
2019-03-19T08:06:42.619Z,48.4
2019-03-19T08:07:32.427Z,49.7
2019-03-19T08:08:22.756Z,50.9
2019-03-19T08:09:12.334Z,52.3
2019-03-19T08:10:02.887Z,53.6
2019-03-19T08:10:52.924Z,54.9
2019-03-19T08:11:42.991Z,56.1
2019-03-19T08:12:34.586Z,57.2
2019-03-19T08:13:23.122Z,58.2
2019-03-19T08:14:13.179Z,59.2
2019-03-19T08:15:03.308Z,60.3
2019-03-19T08:15:52.727Z,61.4
2019-03-19T08:16:43.374Z,62.8
2019-03-19T08:17:33.163Z,63.7
2019-03-19T08:18:23.211Z,64.4
2019-03-19T08:19:13.284Z,65.1
2019-03-19T08:20:03.321Z,66.5
2019-03-19T08:20:53.106Z,67.5
2019-03-19T08:21:43.221Z,64
2019-03-19T08:22:33.782Z,61.3
2019-03-19T08:23:23.838Z,57.4
2019-03-19T08:24:13.893Z,53.3
2019-03-19T08:25:03.703Z,51.3
2019-03-19T08:25:54.025Z,50.9
2019-03-19T08:26:43.791Z,51.4
2019-03-19T08:27:33.868Z,52.4
2019-03-19T08:28:23.694Z,53.6
2019-03-19T08:29:13.700Z,55
2019-03-19T08:30:04.058Z,56.5
2019-03-19T08:30:54.387Z,58.1
2019-03-19T08:31:44.467Z,59.5
2019-03-19T08:32:34.495Z,60.9
2019-03-19T08:33:24.560Z,62.1
2019-03-19T08:34:14.337Z,63.3
2019-03-19T08:35:04.695Z,65.2
2019-03-19T08:35:54.460Z,66.6
2019-03-19T08:36:44.818Z,64.9
2019-03-19T08:37:34.590Z,64.3
2019-03-19T08:38:27.000Z,62.1
2019-03-19T08:39:15.037Z,58.4
2019-03-19T08:40:04.772Z,55.1
2019-03-19T08:40:54.836Z,54.1
2019-03-19T08:41:44.952Z,54.8
2019-03-19T08:42:35.217Z,56.2
2019-03-19T08:43:25.285Z,58
2019-03-19T08:44:14.790Z,59.6
2019-03-19T08:45:05.418Z,61.3
2019-03-19T08:45:54.924Z,62.5
2019-03-19T08:46:45.539Z,65.3
2019-03-19T08:47:35.594Z,65.4
2019-03-19T08:48:25.364Z,65.3
2019-03-19T08:49:15.442Z,64.3
2019-03-19T08:50:05.765Z,61.8
2019-03-19T08:50:55.276Z,59.1
2019-03-19T08:51:45.631Z,57.9
2019-03-19T08:52:35.407Z,58.5
2019-03-19T08:53:25.457Z,60
2019-03-19T08:54:15.523Z,61.3
2019-03-19T08:55:06.140Z,62.2
2019-03-19T08:55:55.924Z,62.4
2019-03-19T08:56:46.262Z,61.5
2019-03-19T08:57:36.158Z,59.8
2019-03-19T08:59:16.179Z,56.2
2019-03-19T09:00:06.230Z,55.1
2019-03-19T09:00:55.999Z,54.4
2019-03-19T09:01:48.849Z,54.1
2019-03-19T09:02:36.400Z,54
2019-03-19T09:03:26.726Z,53.6
2019-03-19T09:04:16.801Z,53.2
2019-03-19T09:05:06.592Z,53
2019-03-19T09:05:56.915Z,52.8
2019-03-19T09:06:46.971Z,52.6
2019-03-19T09:07:37.036Z,52.5
2019-03-19T09:09:16.886Z,52.1
2019-03-19T09:10:07.226Z,51.9
2019-03-19T09:10:57.003Z,51.6
2019-03-19T09:11:47.338Z,51.4
2019-03-19T09:12:37.409Z,51.3
2019-03-19T09:13:27.176Z,51.2
2019-03-19T09:14:17.248Z,51.3
2019-03-19T09:15:07.593Z,51.6
2019-03-19T09:15:57.365Z,51.9
2019-03-19T09:16:47.158Z,52.2
2019-03-19T09:17:37.784Z,52.6
2019-03-19T09:18:27.265Z,53.1
2019-03-19T09:19:17.618Z,53.6
2019-03-19T09:20:07.950Z,53.8
2019-03-19T09:20:57.730Z,53.9
2019-03-19T09:21:47.800Z,54.2
2019-03-19T09:22:37.573Z,54.8
2019-03-19T09:23:27.905Z,55.8
2019-03-19T09:24:17.767Z,57.3
2019-03-19T09:25:08.313Z,58.9
2019-03-19T09:25:58.205Z,60.6
2019-03-19T09:26:48.142Z,62.4
2019-03-19T09:27:38.493Z,64.1
2019-03-19T09:28:28.551Z,66.1
2019-03-19T09:29:19.495Z,69.3
2019-03-19T09:30:08.687Z,68.6
2019-03-19T09:30:58.186Z,67.2
2019-03-19T09:31:48.249Z,63.9
2019-03-19T09:32:38.320Z,59.1
2019-03-19T09:33:28.657Z,56.1
2019-03-19T09:34:18.977Z,56.1
2019-03-19T09:35:08.814Z,58.4
2019-03-19T09:35:58.817Z,60.9
2019-03-19T09:36:59.805Z,62.8
2019-03-19T09:38:00.271Z,63.9
2019-03-19T09:38:29.286Z,63.3
2019-03-19T09:39:19.049Z,62.8
2019-03-19T09:40:09.121Z,62.2
2019-03-19T09:40:59.239Z,62.4
2019-03-19T09:41:49.516Z,63.2
2019-03-19T09:42:39.314Z,64.1
2019-03-19T09:43:29.370Z,64.7
2019-03-19T09:44:19.458Z,64.1
2019-03-19T09:45:09.756Z,62.8
2019-03-19T09:45:59.543Z,61.4
2019-03-19T09:46:49.889Z,60.5
2019-03-19T09:47:40.494Z,60.4
2019-03-19T09:48:30.514Z,60.6
2019-03-19T09:49:22.172Z,60.8
2019-03-19T09:50:10.118Z,60.7
2019-03-19T09:50:59.916Z,60
2019-03-19T09:51:49.971Z,59.1
2019-03-19T09:52:40.311Z,58.2
2019-03-19T09:53:30.374Z,57.5
2019-03-19T09:54:19.874Z,57.4
2019-03-19T09:55:10.514Z,58.4
2019-03-19T09:56:00.351Z,60.5
2019-03-19T09:56:50.345Z,62.1
2019-03-19T09:57:40.407Z,63
2019-03-19T09:58:30.727Z,63.4
2019-03-19T09:59:29.545Z,63.5
2019-03-19T10:00:10.840Z,63.6
2019-03-19T10:01:00.898Z,63.8
2019-03-19T10:01:50.960Z,64.1
2019-03-19T10:02:41.043Z,64.5
2019-03-19T10:03:31.095Z,65.1
2019-03-19T10:04:20.317Z,65.7
2019-03-19T10:06:29.121Z,65.9
2019-03-19T10:07:18.622Z,66
2019-03-19T10:08:08.967Z,66.2
2019-03-19T10:08:59.027Z,66.7
2019-03-19T10:09:49.369Z,67.3
2019-03-19T10:10:39.903Z,67.6
2019-03-19T10:11:29.540Z,68.1
2019-03-19T10:12:19.263Z,68.3
2019-03-19T10:13:09.365Z,68.5
2019-03-19T10:13:59.400Z,68.7
2019-03-19T10:14:49.445Z,68.9
2019-03-19T10:15:54.444Z,69.1
2019-03-19T10:16:29.775Z,68.8
2019-03-19T10:17:19.917Z,68.9
2019-03-19T10:18:10.032Z,69
2019-03-19T10:19:00.224Z,69
2019-03-19T10:19:50.067Z,68.9
2019-03-19T10:20:39.879Z,68.8
2019-03-19T10:21:30.213Z,68.8
2019-03-19T10:22:19.997Z,68.9
2019-03-19T10:23:10.042Z,68.9
2019-03-19T10:24:00.134Z,68.9
2019-03-19T10:24:50.168Z,69
2019-03-19T10:25:40.657Z,69.1
2019-03-19T10:26:30.291Z,69.3
2019-03-19T10:27:22.214Z,69.4
2019-03-19T10:28:10.411Z,69.4
2019-03-19T10:29:00.767Z,69.6
2019-03-19T10:29:50.809Z,69.8
2019-03-19T10:30:40.596Z,69.7
2019-03-19T10:31:30.941Z,69.6
2019-03-19T10:32:20.999Z,69.7
2019-03-19T10:33:10.498Z,69.6
2019-03-19T10:34:01.210Z,69.5
2019-03-19T10:34:51.222Z,69.5
2019-03-19T10:35:41.246Z,69.4
2019-03-19T10:36:31.028Z,69.3
2019-03-19T10:37:21.103Z,69.4
2019-03-19T10:38:10.887Z,69.6
2019-03-19T10:39:01.478Z,69.9
2019-03-19T10:39:51.548Z,69.9
2019-03-19T10:40:41.091Z,69.8
2019-03-19T10:41:31.673Z,69.8
2019-03-19T10:42:21.463Z,69.7
2019-03-19T10:43:11.781Z,69.6
2019-03-19T10:44:01.866Z,69.6
2019-03-19T10:44:51.618Z,69.7
2019-03-19T10:45:41.683Z,69.9
2019-03-19T10:46:31.768Z,69.7
2019-03-19T10:47:22.081Z,69.5
2019-03-19T10:48:12.155Z,69.4
2019-03-19T10:49:02.205Z,69.6
2019-03-19T10:49:52.025Z,69.6
2019-03-19T10:50:42.330Z,69.6
2019-03-19T10:51:32.100Z,69.6
2019-03-19T10:52:22.469Z,69.7
2019-03-19T10:53:12.245Z,69.8
2019-03-19T10:54:02.570Z,69.8
2019-03-19T10:54:52.350Z,69.8
2019-03-19T10:55:42.435Z,69.8
2019-03-19T10:56:31.927Z,69.6
2019-03-19T10:57:22.264Z,69.7
2019-03-19T10:58:13.339Z,69.9
2019-03-19T10:59:02.673Z,69.8
2019-03-19T10:59:52.734Z,69.5
2019-03-19T11:00:42.811Z,69.4
2019-03-19T11:01:32.857Z,69.4
2019-03-19T11:02:23.227Z,69.6
2019-03-19T11:03:13.243Z,69.8
2019-03-19T11:04:03.295Z,69.9
2019-03-19T11:04:52.542Z,70.1
2019-03-19T11:05:43.149Z,70
2019-03-19T11:06:32.937Z,69.9
2019-03-19T11:07:23.599Z,70.1
2019-03-19T11:08:13.333Z,70.3
2019-03-19T11:09:03.705Z,70.4
2019-03-19T11:09:53.729Z,70.1
2019-03-19T11:10:43.504Z,70
2019-03-19T11:11:33.315Z,70
2019-03-19T11:12:23.687Z,69.9
2019-03-19T11:13:13.974Z,70.1
2019-03-19T11:14:03.754Z,70.4
2019-03-19T11:14:54.091Z,70.6
2019-03-19T11:15:44.159Z,70.8
2019-03-19T11:16:34.234Z,70.7
2019-03-19T11:17:23.236Z,70.7
2019-03-19T11:18:13.778Z,70.9
2019-03-19T11:19:04.403Z,70.8
2019-03-19T11:19:54.176Z,70.7
2019-03-19T11:20:46.711Z,70.6
2019-03-19T11:21:34.574Z,70.3
2019-03-19T11:22:24.356Z,70.3
2019-03-19T11:23:14.696Z,70.4
2019-03-19T11:24:04.768Z,70.5
2019-03-19T11:24:54.296Z,70.6
2019-03-19T11:25:56.039Z,70.8
2019-03-19T11:26:34.673Z,70.5
2019-03-19T11:27:24.463Z,70.4
2019-03-19T11:28:16.096Z,70.5
2019-03-19T11:29:04.585Z,70.8
2019-03-19T11:30:02.305Z,70.9
2019-03-19T11:30:44.421Z,70.9
2019-03-19T11:31:35.320Z,70.7
2019-03-19T11:32:25.365Z,70.7
2019-03-19T11:33:15.423Z,70.9
2019-03-19T11:34:05.263Z,71.1
2019-03-19T11:34:55.272Z,70.9
2019-03-19T11:35:47.559Z,70.8
2019-03-19T11:36:35.385Z,70.9
2019-03-19T11:37:24.903Z,70.9
2019-03-19T11:38:15.520Z,71.1
2019-03-19T11:39:05.835Z,71.4
2019-03-19T11:39:55.949Z,71.4
2019-03-19T11:40:45.990Z,71.3
2019-03-19T11:41:35.751Z,71.2
2019-03-19T11:42:26.072Z,71.1
2019-03-19T11:43:15.879Z,70.9
2019-03-19T11:44:06.242Z,70.9
2019-03-19T11:44:56.282Z,71
2019-03-19T11:45:46.052Z,71
2019-03-19T11:46:36.389Z,71
2019-03-19T11:47:26.190Z,70.9
2019-03-19T11:48:16.264Z,70.9
2019-03-19T11:49:06.578Z,70.9
2019-03-19T11:49:56.075Z,71
2019-03-19T11:50:46.414Z,71
2019-03-19T11:51:36.762Z,70.9
2019-03-19T11:52:26.814Z,70.8
2019-03-19T11:53:16.597Z,70.9
2019-03-19T11:54:06.658Z,70.9
2019-03-19T11:54:56.715Z,70.9
2019-03-19T11:55:46.784Z,70.9
2019-03-19T11:56:37.124Z,70.8
2019-03-19T11:57:26.915Z,70.9
2019-03-19T11:58:16.712Z,71.2
2019-03-19T11:59:07.359Z,71.4
2019-03-19T11:59:57.368Z,71.4
2019-03-19T12:00:47.454Z,71.3
2019-03-19T12:01:37.494Z,71
2019-03-19T12:02:28.556Z,70.9
2019-03-19T12:03:18.823Z,70.9
2019-03-19T12:04:07.676Z,71.1
2019-03-19T12:06:28.481Z,71
2019-03-19T12:07:18.826Z,70.9
2019-03-19T12:08:09.168Z,70.9
2019-03-19T12:08:59.215Z,70.6
2019-03-19T12:09:49.323Z,70.4
2019-03-19T12:10:39.061Z,70.5
2019-03-19T12:11:29.390Z,70.3
2019-03-19T12:12:19.463Z,70.1
2019-03-19T12:13:09.283Z,69.8
2019-03-19T12:13:59.305Z,69.8
2019-03-19T12:14:49.718Z,69.8
2019-03-19T12:15:39.702Z,69.9
2019-03-19T12:16:29.125Z,70
2019-03-19T12:17:19.823Z,69.9
2019-03-19T12:18:09.653Z,69.8
2019-03-19T12:18:59.939Z,69.8
2019-03-19T12:19:49.742Z,69.7
2019-03-19T12:20:40.057Z,69.5
2019-03-19T12:21:29.620Z,69.5
2019-03-19T12:22:19.911Z,69.6
2019-03-19T12:23:10.254Z,69.8
2019-03-19T12:24:00.318Z,69.8
2019-03-19T12:24:50.378Z,69.8
2019-03-19T12:25:40.004Z,69.7